createdAt,value
2022-12-16T00:00:20.467Z,34.10
2022-12-16T00:03:08.976Z,33.80
2022-12-16T00:05:42.691Z,32.50
2022-12-16T00:08:12.742Z,31.40
2022-12-16T00:10:53.480Z,30.10
2022-12-16T00:13:23.474Z,25.90
2022-12-16T00:15:51.982Z,31.60
2022-12-16T00:18:20.679Z,30.40
2022-12-16T00:20:52.635Z,29.70
2022-12-16T00:23:23.567Z,28.80
2022-12-16T00:25:53.212Z,30.10
2022-12-16T00:28:23.221Z,28.70
2022-12-16T00:30:53.123Z,30.20
2022-12-16T00:33:25.821Z,29.90
2022-12-16T00:35:55.540Z,29.40
2022-12-16T00:38:26.767Z,29.70
2022-12-16T00:40:55.229Z,29.90
2022-12-16T00:43:23.518Z,29.50
2022-12-16T00:45:52.115Z,29.30
2022-12-16T00:48:23.997Z,30.70
2022-12-16T00:50:55.263Z,30.00
2022-12-16T00:53:25.037Z,32.40
2022-12-16T00:56:02.325Z,29.60
2022-12-16T00:58:30.680Z,30.00
2022-12-16T01:00:59.843Z,30.70
2022-12-16T01:03:28.666Z,29.60
2022-12-16T01:05:57.067Z,28.60
2022-12-16T01:08:26.235Z,30.10
2022-12-16T01:10:56.623Z,30.90
2022-12-16T01:13:26.166Z,28.70
2022-12-16T01:15:54.788Z,30.30
2022-12-16T01:18:23.035Z,31.40
2022-12-16T01:20:51.484Z,30.00
2022-12-16T01:23:20.149Z,29.60
2022-12-16T01:25:53.159Z,30.60
2022-12-16T01:28:22.146Z,29.90
2022-12-16T01:30:55.388Z,29.90
2022-12-16T01:33:24.367Z,31.00
2022-12-16T01:35:59.272Z,32.50
2022-12-16T01:38:27.655Z,27.70
2022-12-16T01:40:56.672Z,28.50
2022-12-16T01:43:29.115Z,29.60
2022-12-16T01:46:07.824Z,30.40
2022-12-16T01:49:01.001Z,30.10
2022-12-16T01:51:32.451Z,28.10
2022-12-16T01:54:26.437Z,30.60
2022-12-16T01:56:58.816Z,28.80
2022-12-16T01:59:29.710Z,30.60
2022-12-16T02:01:59.496Z,30.50
2022-12-16T02:04:28.344Z,31.70
2022-12-16T02:06:58.159Z,30.50
2022-12-16T02:09:26.655Z,31.80
2022-12-16T02:12:39.870Z,32.00
2022-12-16T02:15:27.995Z,32.00
2022-12-16T02:18:02.662Z,30.50
2022-12-16T02:20:57.381Z,31.60
2022-12-16T02:23:36.106Z,33.30
2022-12-16T02:26:16.674Z,34.60
2022-12-16T02:28:57.481Z,32.60
2022-12-16T02:31:53.213Z,31.90
2022-12-16T02:34:57.928Z,33.40
2022-12-16T02:37:41.244Z,31.30
2022-12-16T02:40:30.879Z,31.30
2022-12-16T02:43:18.767Z,32.30
2022-12-16T02:45:48.815Z,32.00
2022-12-16T02:48:17.172Z,31.80
2022-12-16T02:50:51.348Z,31.90
2022-12-16T02:53:20.724Z,32.50
2022-12-16T02:56:18.614Z,32.00
2022-12-16T02:59:08.461Z,33.20
2022-12-16T03:02:07.401Z,32.40
2022-12-16T03:04:49.692Z,32.60
2022-12-16T03:07:20.382Z,31.00
2022-12-16T03:09:50.932Z,33.30
2022-12-16T03:12:22.188Z,31.30
2022-12-16T03:14:53.826Z,33.10
2022-12-16T03:17:24.693Z,33.20
2022-12-16T03:20:23.640Z,34.00
2022-12-16T03:22:54.498Z,32.40
2022-12-16T03:25:23.968Z,34.20
2022-12-16T03:28:01.880Z,33.10
2022-12-16T03:30:36.536Z,33.20
2022-12-16T03:33:29.643Z,33.00
2022-12-16T03:36:06.199Z,35.00
2022-12-16T03:38:36.222Z,33.90
2022-12-16T03:41:06.661Z,33.00
2022-12-16T03:43:35.501Z,34.70
2022-12-16T03:46:07.651Z,34.20
2022-12-16T03:48:36.366Z,33.50
2022-12-16T03:51:04.853Z,34.00
2022-12-16T03:53:33.502Z,33.00
2022-12-16T03:56:02.251Z,33.90
2022-12-16T03:58:30.521Z,32.60
2022-12-16T04:01:00.238Z,33.70
2022-12-16T04:03:28.633Z,33.60
2022-12-16T04:05:57.010Z,33.00
2022-12-16T04:08:25.369Z,29.60
2022-12-16T04:11:13.319Z,34.00
2022-12-16T04:14:00.656Z,34.00
2022-12-16T04:16:49.089Z,33.50
2022-12-16T04:19:44.818Z,33.50
2022-12-16T04:22:41.407Z,33.10
2022-12-16T04:25:20.977Z,33.20
2022-12-16T04:27:49.919Z,34.30
2022-12-16T04:30:20.612Z,32.40
2022-12-16T04:33:15.826Z,34.00
2022-12-16T04:36:03.480Z,32.30
2022-12-16T04:38:51.143Z,33.70
2022-12-16T04:41:38.137Z,33.50
2022-12-16T04:44:26.143Z,32.60
2022-12-16T04:47:13.120Z,33.60
2022-12-16T04:50:00.122Z,33.10
2022-12-16T04:52:47.370Z,32.80
2022-12-16T04:55:34.842Z,33.80
2022-12-16T04:58:23.265Z,32.10
2022-12-16T05:01:10.483Z,35.40
2022-12-16T05:03:57.788Z,34.10
2022-12-16T05:06:45.237Z,35.00
2022-12-16T05:09:32.413Z,34.90
2022-12-16T05:12:19.494Z,34.20
2022-12-16T05:15:06.891Z,34.80
2022-12-16T05:17:54.059Z,34.80
2022-12-16T05:20:41.076Z,33.90
2022-12-16T05:23:28.414Z,35.10
2022-12-16T05:26:15.206Z,35.00
2022-12-16T05:29:02.269Z,32.20
2022-12-16T05:31:49.030Z,34.80
2022-12-16T05:34:35.960Z,36.40
2022-12-16T05:37:22.783Z,34.40
2022-12-16T05:40:09.807Z,34.80
2022-12-16T05:42:56.791Z,35.00
2022-12-16T05:45:43.562Z,34.60
2022-12-16T05:48:30.618Z,36.50
2022-12-16T05:51:17.750Z,34.00
2022-12-16T05:54:06.353Z,35.00
2022-12-16T05:56:54.088Z,33.90
2022-12-16T05:59:41.037Z,35.10
2022-12-16T06:02:28.487Z,34.40
2022-12-16T06:05:15.854Z,34.40
2022-12-16T06:08:10.132Z,36.40
2022-12-16T06:10:57.887Z,33.50
2022-12-16T06:13:44.816Z,34.70
2022-12-16T06:16:31.946Z,35.40
2022-12-16T06:19:18.907Z,35.60
2022-12-16T06:22:05.838Z,34.90
2022-12-16T06:24:52.680Z,36.10
2022-12-16T06:27:39.843Z,36.80
2022-12-16T06:30:28.156Z,34.50
2022-12-16T06:33:15.068Z,34.50
2022-12-16T06:36:02.503Z,33.90
2022-12-16T06:38:49.672Z,36.10
2022-12-16T06:41:36.896Z,36.40
2022-12-16T06:44:24.012Z,37.00
2022-12-16T06:47:11.327Z,35.30
2022-12-16T06:49:58.268Z,37.10
2022-12-16T06:52:45.431Z,36.50
2022-12-16T06:55:32.619Z,37.50
2022-12-16T06:58:20.122Z,36.80
2022-12-16T07:01:07.297Z,36.70
2022-12-16T07:03:54.700Z,38.00
2022-12-16T07:06:41.497Z,36.20
2022-12-16T07:09:28.641Z,37.70
2022-12-16T07:12:15.715Z,37.90
2022-12-16T07:15:02.868Z,35.70
2022-12-16T07:18:09.911Z,35.40
2022-12-16T07:20:57.691Z,37.10
2022-12-16T07:23:44.820Z,37.10
2022-12-16T07:26:32.202Z,37.50
2022-12-16T07:29:19.345Z,37.00
2022-12-16T07:32:06.578Z,36.60
2022-12-16T07:34:53.945Z,38.50
2022-12-16T07:37:42.578Z,39.30
2022-12-16T07:40:29.864Z,37.10
2022-12-16T07:43:17.069Z,38.40
2022-12-16T07:46:04.426Z,34.60
2022-12-16T07:48:51.599Z,37.50
2022-12-16T07:51:40.072Z,36.00
2022-12-16T07:54:27.309Z,37.90
2022-12-16T07:57:14.368Z,36.30
2022-12-16T08:00:01.633Z,37.60
2022-12-16T08:02:59.522Z,36.40
2022-12-16T08:05:46.698Z,34.80
2022-12-16T08:08:33.827Z,35.50
2022-12-16T08:11:20.955Z,38.30
2022-12-16T08:14:07.993Z,40.20
2022-12-16T08:16:56.056Z,39.30
2022-12-16T08:19:43.391Z,37.10
2022-12-16T08:22:30.507Z,38.50
2022-12-16T08:25:17.312Z,37.70
2022-12-16T08:28:04.403Z,38.60
2022-12-16T08:30:51.424Z,38.20
2022-12-16T08:33:39.727Z,37.40
2022-12-16T08:36:27.305Z,38.40
2022-12-16T08:39:14.412Z,38.00
2022-12-16T08:42:01.322Z,36.70
2022-12-16T08:44:48.492Z,35.90
2022-12-16T08:47:35.964Z,33.70
2022-12-16T08:50:24.591Z,33.70
2022-12-16T08:53:11.336Z,35.10
2022-12-16T08:55:58.221Z,36.10
2022-12-16T08:58:45.404Z,35.90
2022-12-16T09:01:32.838Z,35.00
2022-12-16T09:04:20.760Z,38.30
2022-12-16T09:07:08.031Z,36.70
2022-12-16T09:09:55.047Z,35.90
2022-12-16T09:12:41.828Z,37.00
2022-12-16T09:15:29.054Z,37.60
2022-12-16T09:18:16.205Z,36.70
2022-12-16T09:21:03.601Z,36.20
2022-12-16T09:23:50.985Z,34.70
2022-12-16T09:26:38.263Z,34.20
2022-12-16T09:29:25.195Z,34.70
2022-12-16T09:32:12.816Z,36.90
2022-12-16T09:34:59.842Z,36.50
2022-12-16T09:37:46.770Z,35.00
2022-12-16T09:40:36.393Z,32.60
2022-12-16T09:43:45.296Z,31.70
2022-12-16T09:46:51.316Z,34.70
2022-12-16T09:49:59.593Z,33.90
2022-12-16T09:52:48.296Z,33.30
2022-12-16T09:55:46.028Z,34.20
2022-12-16T09:58:35.216Z,32.70
2022-12-16T10:01:23.766Z,35.40
2022-12-16T10:04:10.950Z,35.20
2022-12-16T10:07:04.170Z,36.30
2022-12-16T10:09:54.297Z,35.80
2022-12-16T10:13:00.477Z,36.20
2022-12-16T10:15:55.137Z,36.20
2022-12-16T10:18:58.878Z,37.00
2022-12-16T10:21:59.185Z,36.10
2022-12-16T10:25:00.571Z,35.00
2022-12-16T10:28:03.273Z,35.40
2022-12-16T10:30:53.400Z,35.30
2022-12-16T10:33:43.128Z,34.50
2022-12-16T10:36:36.112Z,37.10
2022-12-16T10:39:51.067Z,38.50
2022-12-16T10:42:49.509Z,36.20
2022-12-16T10:46:00.238Z,35.40
2022-12-16T10:48:56.255Z,35.90
2022-12-16T10:51:47.303Z,36.30
2022-12-16T10:54:40.637Z,37.90
2022-12-16T10:57:42.819Z,37.90
2022-12-16T11:00:36.341Z,37.10
2022-12-16T11:03:41.841Z,38.50
2022-12-16T11:06:32.044Z,38.00
2022-12-16T11:09:45.687Z,39.20
2022-12-16T11:12:51.224Z,39.50
2022-12-16T11:15:44.026Z,40.80
2022-12-16T11:18:39.975Z,41.40
2022-12-16T11:21:40.475Z,41.00
2022-12-16T11:24:39.244Z,41.00
2022-12-16T11:27:41.408Z,39.10
2022-12-16T11:30:42.466Z,40.70
2022-12-16T11:33:30.023Z,40.10
2022-12-16T11:36:28.729Z,42.20
2022-12-16T11:39:16.050Z,39.00
2022-12-16T11:42:11.929Z,39.70
2022-12-16T11:45:09.845Z,41.00
2022-12-16T11:48:01.475Z,40.50
2022-12-16T11:50:52.777Z,43.30
2022-12-16T11:54:04.914Z,43.70
2022-12-16T11:56:56.403Z,44.70
2022-12-16T12:00:11.979Z,45.90
2022-12-16T12:03:03.362Z,43.80
2022-12-16T12:05:59.538Z,41.50
2022-12-16T12:09:05.571Z,44.30
2022-12-16T12:11:58.381Z,45.50
2022-12-16T12:15:15.933Z,45.20
2022-12-16T12:18:47.656Z,43.20
2022-12-16T12:21:44.714Z,44.10
2022-12-16T12:24:56.320Z,45.00
2022-12-16T12:27:56.940Z,45.90
2022-12-16T12:30:44.061Z,46.30
2022-12-16T12:33:45.376Z,47.30
2022-12-16T12:36:36.214Z,47.80
2022-12-16T12:42:16.212Z,47.90
2022-12-16T12:45:38.125Z,47.20
2022-12-16T12:48:34.863Z,50.10
2022-12-16T12:51:31.176Z,49.60
2022-12-16T12:54:43.370Z,47.90
2022-12-16T12:57:32.672Z,48.50
2022-12-16T13:00:33.461Z,48.60
2022-12-16T13:03:25.892Z,48.90
2022-12-16T13:06:13.940Z,47.40
2022-12-16T13:09:14.408Z,50.00
2022-12-16T13:12:23.828Z,47.80
2022-12-16T13:15:11.090Z,47.00
2022-12-16T13:18:22.628Z,48.80
2022-12-16T13:21:11.172Z,47.10
2022-12-16T13:24:00.358Z,48.80
2022-12-16T13:26:50.178Z,50.20
2022-12-16T13:29:39.951Z,48.40
2022-12-16T13:32:44.485Z,50.40
2022-12-16T13:35:31.556Z,51.30
2022-12-16T13:38:21.388Z,49.90
2022-12-16T13:41:08.203Z,49.90
2022-12-16T13:44:07.151Z,50.20
2022-12-16T13:47:03.383Z,50.00
2022-12-16T14:06:48.223Z,52.90
2022-12-16T14:09:46.975Z,53.20
2022-12-16T14:12:49.433Z,50.10
2022-12-16T14:15:46.868Z,50.10
2022-12-16T14:18:47.464Z,53.10
2022-12-16T14:21:41.028Z,52.30
2022-12-16T14:24:41.621Z,54.40
2022-12-16T14:27:40.617Z,52.70
2022-12-16T14:30:38.865Z,52.90
2022-12-16T14:33:47.995Z,53.80
2022-12-16T14:36:38.154Z,57.20
2022-12-16T14:39:39.705Z,54.80
2022-12-16T14:42:45.827Z,55.70
2022-12-16T14:45:41.186Z,50.80
2022-12-16T14:49:02.889Z,49.70
2022-12-16T14:52:03.993Z,48.50
2022-12-16T14:55:01.402Z,48.30
2022-12-16T14:57:51.360Z,47.80
2022-12-16T15:00:43.485Z,44.20
2022-12-16T15:03:59.121Z,44.10
2022-12-16T15:06:53.381Z,44.70
2022-12-16T15:09:46.923Z,44.50
2022-12-16T15:12:38.697Z,45.90
2022-12-16T15:15:32.453Z,48.70
2022-12-16T15:18:20.584Z,49.00
2022-12-16T15:21:16.428Z,50.20
2022-12-16T15:24:04.326Z,49.90
2022-12-16T15:26:53.796Z,45.80
2022-12-16T15:29:51.723Z,45.90
2022-12-16T15:32:44.865Z,43.90
2022-12-16T15:35:51.807Z,41.20
2022-12-16T15:38:51.431Z,41.50
2022-12-16T15:41:41.434Z,41.50
2022-12-16T15:44:40.706Z,41.90
2022-12-16T15:47:43.084Z,40.30
2022-12-16T15:50:34.863Z,39.20
2022-12-16T15:53:57.807Z,40.00
2022-12-16T15:57:05.670Z,39.10
2022-12-16T15:59:56.647Z,36.40
2022-12-16T16:02:49.672Z,33.50
2022-12-16T16:05:41.476Z,31.40
2022-12-16T16:08:30.024Z,32.00
2022-12-16T16:11:16.960Z,31.80
2022-12-16T16:14:08.310Z,30.70
2022-12-16T16:16:59.455Z,28.60
2022-12-16T16:19:46.743Z,29.40
2022-12-16T16:22:36.189Z,27.10
2022-12-16T16:25:24.102Z,29.00
2022-12-16T16:28:10.836Z,26.90
2022-12-16T16:30:57.922Z,27.00
2022-12-16T16:33:45.134Z,28.00
2022-12-16T16:36:33.981Z,27.90
2022-12-16T16:39:21.123Z,26.50
2022-12-16T16:42:08.029Z,25.50
2022-12-16T16:44:59.842Z,25.60
2022-12-16T16:47:47.034Z,25.30
2022-12-16T16:50:34.810Z,25.30
2022-12-16T16:53:21.885Z,23.50
2022-12-16T16:56:18.106Z,24.10
2022-12-16T16:59:07.265Z,24.10
2022-12-16T17:01:54.628Z,22.70
2022-12-16T17:04:41.980Z,22.80
2022-12-16T17:07:29.254Z,24.10
2022-12-16T17:10:16.555Z,24.20
2022-12-16T17:13:04.905Z,24.90
2022-12-16T17:15:55.850Z,27.60
2022-12-16T17:18:46.638Z,26.40
2022-12-16T17:21:35.173Z,24.90
2022-12-16T17:24:22.113Z,26.90
2022-12-16T17:27:09.272Z,26.40
2022-12-16T17:29:56.219Z,25.40
2022-12-16T17:32:43.431Z,26.00
2022-12-16T17:35:30.873Z,24.90
2022-12-16T17:38:18.198Z,26.10
2022-12-16T17:41:11.384Z,24.30
2022-12-16T17:44:18.816Z,23.00
2022-12-16T17:47:05.760Z,24.20
2022-12-16T17:49:52.965Z,23.90
2022-12-16T17:52:40.449Z,23.50
2022-12-16T17:55:28.889Z,25.10
2022-12-16T17:58:16.222Z,25.40
2022-12-16T18:01:03.742Z,25.30
2022-12-16T18:03:50.801Z,25.40
2022-12-16T18:06:37.764Z,24.30
2022-12-16T18:09:25.033Z,25.50
2022-12-16T18:12:12.290Z,25.00
2022-12-16T18:14:59.340Z,25.40
2022-12-16T18:17:46.227Z,25.20
2022-12-16T18:20:33.311Z,24.00
2022-12-16T18:23:20.505Z,23.80
2022-12-16T18:26:22.256Z,25.40
2022-12-16T18:29:09.406Z,25.00
2022-12-16T18:31:56.718Z,24.10
2022-12-16T18:34:43.579Z,24.50
2022-12-16T18:37:32.152Z,24.30
2022-12-16T18:40:19.045Z,23.10
2022-12-16T18:43:05.907Z,24.80
2022-12-16T18:45:53.158Z,24.40
2022-12-16T18:48:40.166Z,24.80
2022-12-16T18:51:27.680Z,24.50
2022-12-16T18:54:15.163Z,24.20
2022-12-16T18:57:02.382Z,24.10
2022-12-16T18:59:49.351Z,24.80
2022-12-16T19:02:37.100Z,25.20
2022-12-16T19:05:24.570Z,23.70
2022-12-16T19:08:14.467Z,26.20
2022-12-16T19:11:02.047Z,27.90
2022-12-16T19:13:49.296Z,23.70
2022-12-16T19:16:36.284Z,21.80
2022-12-16T19:19:23.587Z,21.30
2022-12-16T19:22:10.627Z,20.60
2022-12-16T19:24:57.760Z,21.90
2022-12-16T19:27:44.611Z,21.40
2022-12-16T19:30:31.870Z,20.50
2022-12-16T19:33:18.928Z,22.20
2022-12-16T19:36:06.784Z,20.90
2022-12-16T19:38:53.727Z,21.60
2022-12-16T19:41:43.916Z,20.80
2022-12-16T19:44:31.299Z,21.20
2022-12-16T19:47:18.661Z,17.80
2022-12-16T19:50:05.790Z,18.00
2022-12-16T19:52:52.886Z,18.80
2022-12-16T19:55:43.274Z,18.00
2022-12-16T19:58:30.527Z,18.90
2022-12-16T20:01:17.420Z,19.00
2022-12-16T20:04:04.527Z,17.90
2022-12-16T20:06:51.769Z,18.10
2022-12-16T20:09:39.469Z,18.60
2022-12-16T20:12:26.234Z,18.40
2022-12-16T20:15:13.655Z,17.60
2022-12-16T20:18:00.738Z,18.80
2022-12-16T20:20:47.917Z,19.50
2022-12-16T20:23:34.705Z,18.30
2022-12-16T20:26:22.122Z,19.40
2022-12-16T20:29:09.360Z,19.70
2022-12-16T20:31:56.770Z,20.70
2022-12-16T20:34:43.853Z,20.30
2022-12-16T20:37:30.875Z,19.60
2022-12-16T20:40:17.849Z,20.20
2022-12-16T20:43:05.104Z,19.90
2022-12-16T20:45:52.328Z,21.80
2022-12-16T20:48:43.301Z,20.10
2022-12-16T20:51:30.611Z,22.40
2022-12-16T20:54:17.648Z,24.20
2022-12-16T20:57:07.041Z,23.30
2022-12-16T20:59:59.581Z,23.60
2022-12-16T21:02:46.742Z,24.70
2022-12-16T21:05:33.844Z,23.30
2022-12-16T21:08:20.603Z,25.60
2022-12-16T21:11:08.073Z,26.00
2022-12-16T21:13:56.450Z,25.60
2022-12-16T21:16:44.400Z,26.10
2022-12-16T21:19:33.775Z,28.40
2022-12-16T21:22:21.344Z,31.00
2022-12-16T21:25:08.053Z,31.50
2022-12-16T21:27:55.494Z,31.40
2022-12-16T21:30:42.842Z,27.90
2022-12-16T21:33:39.156Z,29.50
2022-12-16T21:36:26.401Z,28.30
2022-12-16T21:39:13.788Z,28.30
2022-12-16T21:42:00.482Z,28.20
2022-12-16T21:44:47.556Z,26.40
2022-12-16T21:47:34.381Z,26.50
2022-12-16T21:50:21.741Z,23.60
2022-12-16T21:53:10.288Z,24.90
2022-12-16T21:55:57.497Z,24.30
2022-12-16T21:58:44.232Z,25.50
2022-12-16T22:01:31.934Z,27.40
2022-12-16T22:04:18.898Z,27.00
2022-12-16T22:07:06.530Z,25.70
2022-12-16T22:09:53.686Z,27.30
2022-12-16T22:12:43.469Z,29.30
2022-12-16T22:15:30.648Z,25.30
2022-12-16T22:18:28.419Z,24.10
2022-12-16T22:21:17.538Z,24.60
2022-12-16T22:24:04.621Z,23.90
2022-12-16T22:26:51.964Z,23.80
2022-12-16T22:29:41.146Z,23.60
2022-12-16T22:32:28.072Z,24.60
2022-12-16T22:35:15.306Z,22.00
2022-12-16T22:38:02.297Z,25.10
2022-12-16T22:40:49.853Z,23.40
2022-12-16T22:43:37.071Z,21.50
2022-12-16T22:46:24.640Z,21.10
2022-12-16T22:49:11.724Z,23.50
2022-12-16T22:51:58.866Z,24.10
2022-12-16T22:54:45.786Z,23.00
2022-12-16T22:57:32.999Z,25.40
2022-12-16T23:00:20.041Z,27.30
2022-12-16T23:03:07.215Z,29.30
2022-12-16T23:05:54.111Z,27.60
2022-12-16T23:08:42.057Z,27.60
2022-12-16T23:11:41.566Z,29.80
2022-12-16T23:14:28.899Z,29.40
2022-12-16T23:17:15.652Z,29.60
2022-12-16T23:20:02.668Z,28.50
2022-12-16T23:22:49.815Z,30.10
2022-12-16T23:25:37.322Z,30.50
2022-12-16T23:28:24.336Z,32.00
2022-12-16T23:31:16.641Z,29.50
2022-12-16T23:34:03.704Z,29.30
2022-12-16T23:36:51.057Z,30.80
2022-12-16T23:39:40.300Z,29.90
2022-12-16T23:42:38.413Z,32.10
2022-12-16T23:45:26.326Z,31.90
2022-12-16T23:48:22.701Z,32.80
2022-12-16T23:51:10.218Z,32.10
2022-12-16T23:53:57.178Z,32.20
2022-12-16T23:56:44.545Z,32.20
2022-12-16T23:59:31.744Z,31.20
